Time;durP1;ratioP1;P1;durP2;ratioP2;P2;SDS_P1;SDS_P2;PMS_P1;PMS_P2;Temp;Humidity;BMP_temperature;BMP_pressure;BME280_temperature;BME280_humidity;BME280_pressure;Samples;Min_cycle;Max_cycle;Signal;HPM_P1;HPM_P2
2023/04/25 00:01:39;;;;;;;5.67;5.10;;;11.30;99.90;;;;;;6200296;28;20488;-65
2023/04/25 00:04:43;;;;;;;6.17;5.67;;;11.20;99.90;;;;;;6189103;28;20480;-64
2023/04/25 00:07:46;;;;;;;6.10;5.50;;;11.20;99.90;;;;;;6182415;28;20771;-65
2023/04/25 00:10:51;;;;;;;5.70;5.20;;;11.20;99.90;;;;;;6187425;28;20574;-64
2023/04/25 00:13:54;;;;;;;6.33;5.83;;;11.20;99.90;;;;;;6192348;28;20488;-65
2023/04/25 00:17:00;;;;;;;5.53;5.13;;;11.20;99.90;;;;;;6193667;28;20816;-64
2023/04/25 00:20:08;;;;;;;6.00;5.50;;;11.30;99.90;;;;;;6202762;28;20586;-65
2023/04/25 00:23:11;;;;;;;5.57;5.10;;;11.10;99.90;;;;;;6205124;28;20483;-64
2023/04/25 00:26:16;;;;;;;7.83;5.43;;;11.10;99.90;;;;;;6201588;28;20473;-65
2023/04/25 00:29:20;;;;;;;5.13;4.57;;;11.20;99.90;;;;;;6193328;28;20972;-64
2023/04/25 00:32:23;;;;;;;5.87;5.40;;;11.20;99.90;;;;;;6191547;28;20476;-64
2023/04/25 00:35:27;;;;;;;6.13;5.67;;;11.30;99.90;;;;;;6189119;28;20559;-65
2023/04/25 00:38:30;;;;;;;5.37;4.97;;;11.30;99.90;;;;;;6189716;28;20507;-65
2023/04/25 00:41:34;;;;;;;6.60;6.10;;;11.30;99.90;;;;;;6190086;28;20519;-65
2023/04/25 00:44:38;;;;;;;11.13;6.20;;;11.30;99.90;;;;;;6195791;28;20487;-65
2023/04/25 00:47:42;;;;;;;6.10;5.60;;;11.30;99.90;;;;;;6194000;28;20472;-65
2023/04/25 00:50:52;;;;;;;6.33;5.83;;;11.30;99.90;;;;;;6197625;28;21735;-65
2023/04/25 00:53:58;;;;;;;6.97;5.53;;;11.30;99.90;;;;;;6188040;28;21199;-64
2023/04/25 00:57:03;;;;;;;7.87;6.10;;;11.30;99.90;;;;;;6182023;28;20912;-64
2023/04/25 01:00:10;;;;;;;6.03;5.53;;;11.30;99.90;;;;;;6180005;28;20493;-64
2023/04/25 01:03:15;;;;;;;7.03;5.73;;;11.30;99.90;;;;;;6179955;28;20496;-64
2023/04/25 01:06:19;;;;;;;7.37;6.77;;;11.30;99.90;;;;;;6180003;28;20553;-64
2023/04/25 01:09:23;;;;;;;6.27;5.80;;;11.30;99.90;;;;;;6179850;28;20473;-64
2023/04/25 01:12:28;;;;;;;6.60;6.10;;;11.30;99.90;;;;;;6179840;28;20477;-64
2023/04/25 01:15:31;;;;;;;6.93;6.33;;;11.20;99.90;;;;;;6179283;28;20469;-64
2023/04/25 01:18:34;;;;;;;6.00;5.50;;;11.20;99.90;;;;;;6179602;28;20492;-64
2023/04/25 01:21:39;;;;;;;6.60;6.00;;;11.10;99.90;;;;;;6179733;28;20485;-64
2023/04/25 01:24:43;;;;;;;6.67;6.07;;;11.10;99.90;;;;;;6178627;28;20470;-64
2023/04/25 01:27:46;;;;;;;6.77;6.27;;;11.00;99.90;;;;;;6179859;28;20492;-64
2023/04/25 01:30:50;;;;;;;6.37;5.77;;;11.00;99.90;;;;;;6179349;28;20477;-64
2023/04/25 01:33:54;;;;;;;6.53;5.93;;;11.00;99.90;;;;;;6179552;28;20783;-64
2023/04/25 01:37:01;;;;;;;7.27;6.00;;;11.00;99.90;;;;;;6180568;28;20465;-64
2023/04/25 01:40:05;;;;;;;6.37;5.83;;;10.90;99.90;;;;;;6179803;28;20485;-64
2023/04/25 01:43:10;;;;;;;5.20;4.80;;;10.90;99.90;;;;;;6182518;28;20487;-64
2023/04/25 01:46:14;;;;;;;6.47;5.93;;;10.90;99.90;;;;;;6189840;28;20473;-61
2023/04/25 01:49:17;;;;;;;6.07;5.57;;;10.80;99.90;;;;;;6175018;28;20493;-61
2023/04/25 01:52:22;;;;;;;46.97;7.13;;;10.80;99.90;;;;;;6179205;28;20474;-62
2023/04/25 01:55:25;;;;;;;5.90;5.00;;;10.70;99.90;;;;;;6178676;28;20477;-62
2023/04/25 01:58:28;;;;;;;5.40;4.90;;;10.70;99.90;;;;;;6178590;28;20988;-62
2023/04/25 02:01:31;;;;;;;6.10;5.17;;;10.60;99.90;;;;;;6178622;28;20473;-62
2023/04/25 02:04:34;;;;;;;5.57;5.10;;;10.50;99.90;;;;;;6182649;28;20473;-63
2023/04/25 02:07:39;;;;;;;10.53;4.67;;;10.50;99.90;;;;;;6202796;28;20476;-63
2023/04/25 02:10:42;;;;;;;8.63;4.47;;;10.50;99.90;;;;;;6202454;28;20469;-62
2023/04/25 02:13:45;;;;;;;4.80;4.40;;;10.40;99.90;;;;;;6202629;28;20473;-63
2023/04/25 02:16:51;;;;;;;5.67;5.07;;;10.30;99.90;;;;;;6201975;28;20490;-62
2023/04/25 02:19:54;;;;;;;5.70;5.30;;;10.30;99.90;;;;;;6202105;28;20794;-63
2023/04/25 02:22:59;;;;;;;3.87;3.57;;;10.20;99.90;;;;;;6201985;28;20473;-62
2023/04/25 02:26:02;;;;;;;5.30;3.90;;;10.20;99.90;;;;;;6202262;28;21013;-63
2023/04/25 02:29:05;;;;;;;3.47;3.17;;;10.10;99.90;;;;;;6201587;28;20787;-62
2023/04/25 02:32:08;;;;;;;4.60;4.00;;;10.10;99.90;;;;;;6202104;28;20480;-62
2023/04/25 02:35:11;;;;;;;3.10;2.90;;;10.00;99.90;;;;;;6201408;28;20493;-62
2023/04/25 02:38:16;;;;;;;4.93;3.27;;;10.00;99.90;;;;;;6201114;28;20469;-62
2023/04/25 02:41:20;;;;;;;4.30;2.73;;;9.90;99.90;;;;;;6201915;28;20481;-62
2023/04/25 02:44:23;;;;;;;3.47;3.17;;;9.90;99.90;;;;;;6201432;28;20479;-63
2023/04/25 02:47:26;;;;;;;4.80;2.97;;;9.80;99.90;;;;;;6201686;28;20789;-62
2023/04/25 02:50:30;;;;;;;4.40;2.63;;;9.80;99.90;;;;;;6201445;28;20481;-63
2023/04/25 02:53:34;;;;;;;3.67;2.60;;;9.70;99.90;;;;;;6197458;28;20492;-63
2023/04/25 02:56:37;;;;;;;4.87;2.97;;;9.70;99.90;;;;;;6201199;28;20480;-63
2023/04/25 02:59:41;;;;;;;3.77;3.40;;;9.70;99.90;;;;;;6201074;28;20587;-63
2023/04/25 03:02:44;;;;;;;3.10;2.80;;;9.70;99.90;;;;;;6200996;28;20484;-63
2023/04/25 03:05:47;;;;;;;3.73;3.40;;;9.60;99.90;;;;;;6201117;28;20500;-64
2023/04/25 03:08:52;;;;;;;3.13;2.90;;;9.50;99.90;;;;;;6200721;28;20491;-63
2023/04/25 03:11:55;;;;;;;3.13;2.90;;;9.50;99.90;;;;;;6201421;28;20518;-64
2023/04/25 03:14:58;;;;;;;3.77;2.63;;;9.40;99.90;;;;;;6201211;28;20481;-63
2023/04/25 03:18:01;;;;;;;3.17;2.40;;;9.30;99.90;;;;;;6201063;28;20457;-63
2023/04/25 03:21:04;;;;;;;4.73;2.93;;;9.30;99.90;;;;;;6201010;28;20487;-63
2023/04/25 03:24:10;;;;;;;4.40;3.13;;;9.30;99.90;;;;;;6201237;28;20460;-63
2023/04/25 03:27:13;;;;;;;3.53;3.20;;;9.30;99.90;;;;;;6201035;28;20452;-63
2023/04/25 03:30:16;;;;;;;4.73;3.37;;;9.30;99.90;;;;;;6200057;28;21004;-63
2023/04/25 03:33:20;;;;;;;3.47;3.17;;;9.30;99.90;;;;;;6201121;28;20465;-63
2023/04/25 03:36:23;;;;;;;30.93;8.50;;;9.30;99.90;;;;;;6200741;28;20464;-63
2023/04/25 03:39:27;;;;;;;6.00;5.50;;;9.30;99.90;;;;;;6200368;28;20473;-63
2023/04/25 03:42:30;;;;;;;8.77;3.90;;;9.30;99.90;;;;;;6200070;28;20469;-63
2023/04/25 03:45:34;;;;;;;3.53;2.73;;;9.40;99.90;;;;;;6200514;28;20473;-64
2023/04/25 03:48:37;;;;;;;3.27;3.07;;;9.40;99.90;;;;;;6203619;28;20574;-63
2023/04/25 03:51:40;;;;;;;5.10;4.33;;;9.50;99.90;;;;;;6205535;28;20786;-63
2023/04/25 03:54:44;;;;;;;4.30;3.90;;;9.60;99.90;;;;;;6205170;28;20783;-63
2023/04/25 03:57:47;;;;;;;5.60;4.10;;;9.60;99.90;;;;;;6205517;28;20469;-63
2023/04/25 04:00:51;;;;;;;6.67;3.93;;;9.70;99.90;;;;;;6205385;28;20477;-63
2023/04/25 04:03:54;;;;;;;7.17;3.63;;;9.70;99.90;;;;;;6203769;28;20816;-64
2023/04/25 04:06:58;;;;;;;6.30;3.17;;;9.70;99.90;;;;;;6205095;28;20483;-63
2023/04/25 04:10:02;;;;;;;5.17;3.80;;;9.80;99.90;;;;;;6204966;28;20961;-63
2023/04/25 04:13:08;;;;;;;4.03;3.60;;;9.80;99.90;;;;;;6205139;28;20495;-63
2023/04/25 04:16:12;;;;;;;4.97;4.37;;;9.80;99.90;;;;;;6205122;28;20480;-63
2023/04/25 04:19:15;;;;;;;5.67;4.50;;;9.80;99.90;;;;;;6205087;28;20477;-63
2023/04/25 04:22:19;;;;;;;5.23;4.53;;;9.80;99.90;;;;;;6204653;28;20479;-62
2023/04/25 04:25:24;;;;;;;6.57;5.97;;;9.80;99.90;;;;;;6204970;28;20483;-62
2023/04/25 04:28:27;;;;;;;7.43;5.00;;;9.80;99.90;;;;;;6204440;28;20496;-62
2023/04/25 04:31:32;;;;;;;8.90;5.00;;;9.80;99.90;;;;;;6204294;28;20483;-62
2023/04/25 04:34:35;;;;;;;8.50;5.10;;;9.80;99.90;;;;;;6204508;28;20464;-63
2023/04/25 04:37:39;;;;;;;5.37;4.90;;;9.70;99.90;;;;;;6204221;28;20813;-63
2023/04/25 04:40:44;;;;;;;5.47;4.60;;;9.70;99.90;;;;;;6204223;28;20496;-63
2023/04/25 04:43:47;;;;;;;7.10;5.40;;;9.70;99.90;;;;;;6204283;28;20476;-63
2023/04/25 04:46:50;;;;;;;6.03;4.73;;;9.70;99.90;;;;;;6204403;28;20599;-63
2023/04/25 04:49:54;;;;;;;6.20;4.53;;;9.70;99.90;;;;;;6204580;28;20796;-63
2023/04/25 04:52:57;;;;;;;7.93;4.20;;;9.80;99.90;;;;;;6203706;28;20979;-63
2023/04/25 04:56:01;;;;;;;7.37;5.23;;;10.00;99.90;;;;;;6203933;28;20499;-63
2023/04/25 04:59:04;;;;;;;7.43;5.63;;;10.10;99.90;;;;;;6202742;28;21105;-63
2023/04/25 05:02:07;;;;;;;5.30;4.67;;;10.10;99.90;;;;;;6194907;28;20484;-63
2023/04/25 05:05:11;;;;;;;7.40;4.77;;;10.30;99.90;;;;;;6203732;28;20488;-63
2023/04/25 05:08:14;;;;;;;9.27;5.20;;;10.30;99.90;;;;;;6203920;28;20784;-63
2023/04/25 05:11:18;;;;;;;9.50;4.60;;;10.50;99.90;;;;;;6204185;28;20488;-63
2023/04/25 05:14:23;;;;;;;5.97;4.33;;;10.60;99.90;;;;;;6203674;28;20481;-63
2023/04/25 05:17:26;;;;;;;4.80;4.20;;;10.80;99.90;;;;;;6203791;28;20971;-63
2023/04/25 05:20:29;;;;;;;5.40;4.27;;;11.00;99.90;;;;;;6203523;28;20529;-63
2023/04/25 05:23:33;;;;;;;6.23;4.03;;;11.30;99.90;;;;;;6203722;28;20965;-63
2023/04/25 05:26:38;;;;;;;5.23;4.77;;;11.60;99.90;;;;;;6203715;28;20476;-63
2023/04/25 05:29:41;;;;;;;6.97;3.80;;;11.90;99.90;;;;;;6202979;28;20837;-63
2023/04/25 05:32:46;;;;;;;12.07;4.93;;;12.50;99.90;;;;;;6203565;28;20477;-63
2023/04/25 05:35:50;;;;;;;6.30;4.33;;;13.00;99.90;;;;;;6203296;28;20508;-63
2023/04/25 05:38:53;;;;;;;6.67;3.97;;;13.60;99.90;;;;;;6203112;28;20496;-64
2023/04/25 05:41:57;;;;;;;4.60;4.20;;;14.00;99.90;;;;;;6203124;28;20976;-64
2023/04/25 05:45:00;;;;;;;5.13;4.50;;;14.40;99.90;;;;;;6202799;28;20472;-63
2023/04/25 05:48:04;;;;;;;6.77;3.70;;;14.90;99.70;;;;;;6202702;28;20459;-63
2023/04/25 05:51:07;;;;;;;5.77;4.20;;;15.40;98.90;;;;;;6203501;28;20445;-64
2023/04/25 05:54:10;;;;;;;6.63;5.10;;;16.00;97.80;;;;;;6202819;28;20445;-63
2023/04/25 05:57:22;;;;;;;5.10;3.70;;;16.50;96.50;;;;;;6203243;28;20468;-63
2023/04/25 06:00:25;;;;;;;4.50;4.07;;;17.00;95.30;;;;;;6202731;28;20800;-63
2023/04/25 06:03:28;;;;;;;8.30;3.73;;;17.60;94.30;;;;;;6198532;28;20468;-63
2023/04/25 06:06:32;;;;;;;6.67;4.20;;;18.20;92.70;;;;;;6202248;28;20976;-63
2023/04/25 06:09:35;;;;;;;5.23;3.80;;;18.60;90.60;;;;;;6202510;28;20479;-63
2023/04/25 06:12:40;;;;;;;4.43;4.00;;;18.90;90.00;;;;;;6202708;28;20548;-63
2023/04/25 06:15:43;;;;;;;5.37;4.87;;;19.50;88.10;;;;;;6202210;28;20245;-63
2023/04/25 06:18:46;;;;;;;6.33;5.10;;;20.20;85.10;;;;;;6202997;28;20275;-63
2023/04/25 06:21:50;;;;;;;5.87;5.30;;;20.50;82.90;;;;;;6202334;28;20238;-63
2023/04/25 06:24:53;;;;;;;10.50;6.07;;;21.00;81.10;;;;;;6202307;28;20245;-63
2023/04/25 06:27:57;;;;;;;6.60;6.00;;;21.40;79.70;;;;;;6202028;28;20229;-63
2023/04/25 06:31:01;;;;;;;6.97;6.10;;;22.00;77.90;;;;;;6202072;28;20587;-63
2023/04/25 06:34:04;;;;;;;5.70;5.17;;;22.30;75.30;;;;;;6201869;28;20295;-63
2023/04/25 06:37:07;;;;;;;7.37;6.00;;;22.70;71.20;;;;;;6201604;28;20573;-63
2023/04/25 06:40:10;;;;;;;10.03;5.70;;;23.30;69.10;;;;;;6201361;28;20695;-63
2023/04/25 06:43:15;;;;;;;7.10;6.50;;;24.00;67.50;;;;;;6201884;28;20229;-63
2023/04/25 06:46:18;;;;;;;6.43;5.77;;;24.40;63.40;;;;;;6202131;28;20242;-63
2023/04/25 06:49:21;;;;;;;6.93;6.33;;;24.90;60.80;;;;;;6201771;28;20805;-64
2023/04/25 06:52:24;;;;;;;7.43;6.60;;;25.30;59.20;;;;;;6202006;28;20233;-64
2023/04/25 06:55:28;;;;;;;7.37;6.50;;;25.90;56.80;;;;;;6201672;28;20702;-64
2023/04/25 06:58:32;;;;;;;8.00;7.13;;;26.30;55.00;;;;;;6201550;28;20249;-64
2023/04/25 07:01:36;;;;;;;6.27;5.73;;;26.90;51.70;;;;;;6201249;28;20555;-64
2023/04/25 07:04:39;;;;;;;6.70;6.13;;;27.40;50.20;;;;;;6201607;28;20583;-64
2023/04/25 07:07:43;;;;;;;5.40;5.00;;;28.20;48.10;;;;;;6196881;28;20238;-64
2023/04/25 07:10:46;;;;;;;5.90;5.50;;;28.60;44.90;;;;;;6182008;28;20240;-64
2023/04/25 07:13:53;;;;;;;14.70;10.50;;;29.60;41.40;;;;;;6190430;28;20225;-65
2023/04/25 07:16:56;;;;;;;19.63;17.57;;;30.20;38.70;;;;;;6183823;28;20229;-64
2023/04/25 07:20:00;;;;;;;6.77;5.70;;;30.80;38.00;;;;;;6178633;28;20237;-64
2023/04/25 07:23:03;;;;;;;11.60;10.50;;;31.20;36.60;;;;;;6189916;28;20224;-66
2023/04/25 07:26:06;;;;;;;17.80;16.13;;;31.70;34.80;;;;;;6200456;28;20244;-67
2023/04/25 07:29:11;;;;;;;11.57;10.52;;;32.30;33.60;;;;;;6200642;28;20711;-66
2023/04/25 07:32:17;;;;;;;10.70;8.73;;;33.10;31.60;;;;;;6200458;28;20236;-66
2023/04/25 07:35:20;;;;;;;6.35;5.90;;;33.90;29.90;;;;;;6200876;28;20229;-67
2023/04/25 07:38:26;;;;;;;4.47;4.18;;;34.40;28.90;;;;;;6200512;28;20244;-65
2023/04/25 07:41:29;;;;;;;3.97;3.58;;;34.90;27.20;;;;;;6200636;28;20233;-65
2023/04/25 07:44:38;;;;;;;2.58;2.38;;;35.70;25.40;;;;;;6200759;28;20565;-65
2023/04/25 07:47:41;;;;;;;4.10;3.70;;;35.90;21.80;;;;;;6200417;28;20229;-65
2023/04/25 07:50:44;;;;;;;12.88;11.75;;;36.60;23.30;;;;;;6200391;28;20232;-65
2023/04/25 07:53:47;;;;;;;3.90;3.63;;;36.40;23.00;;;;;;6199903;28;20243;-65
2023/04/25 07:56:52;;;;;;;4.50;4.20;;;36.30;20.20;;;;;;6200272;28;20519;-65
2023/04/25 07:59:57;;;;;;;3.72;3.15;;;36.50;19.90;;;;;;6199857;28;20233;-65
2023/04/25 08:03:00;;;;;;;1.95;1.80;;;36.90;18.30;;;;;;6200293;28;20232;-65
2023/04/25 08:06:04;;;;;;;2.72;2.53;;;35.30;18.10;;;;;;6198841;28;20228;-65
2023/04/25 08:09:10;;;;;;;2.53;2.33;;;35.60;20.00;;;;;;6199767;28;20221;-66
2023/04/25 08:12:13;;;;;;;1.73;1.63;;;36.80;19.70;;;;;;6195691;28;20201;-66
2023/04/25 08:15:18;;;;;;;2.17;2.08;;;37.40;16.90;;;;;;6189913;28;20205;-66
2023/04/25 08:18:21;;;;;;;5.20;4.80;;;36.90;17.80;;;;;;6183564;28;20207;-66
2023/04/25 08:21:25;;;;;;;2.70;2.42;;;37.60;17.90;;;;;;6191669;28;20230;-66
2023/04/25 08:24:28;;;;;;;1.98;1.88;;;36.40;18.10;;;;;;6191495;28;20243;-65
2023/04/25 08:27:31;;;;;;;1.92;1.83;;;34.30;18.70;;;;;;6186974;28;20233;-66
2023/04/25 08:30:36;;;;;;;4.43;1.77;;;33.50;19.20;;;;;;6187260;28;20243;-65
2023/04/25 08:33:39;;;;;;;2.35;2.03;;;31.60;21.00;;;;;;6191161;28;20248;-65
2023/04/25 08:36:42;;;;;;;2.00;1.73;;;30.90;22.10;;;;;;6196569;28;20221;-65
2023/04/25 08:39:46;;;;;;;1.88;1.55;;;32.10;20.70;;;;;;6191025;28;20247;-65
2023/04/25 08:42:51;;;;;;;1.55;1.23;;;31.90;20.20;;;;;;6183776;28;20709;-67
2023/04/25 08:46:00;;;;;;;2.00;1.60;;;29.90;21.30;;;;;;6179901;28;20312;-67
2023/04/25 08:49:03;;;;;;;2.50;1.77;;;28.20;22.70;;;;;;6180668;28;20238;-67
2023/04/25 08:52:07;;;;;;;1.70;1.53;;;25.90;24.90;;;;;;6179182;28;20713;-67
2023/04/25 08:55:12;;;;;;;3.00;2.10;;;24.90;26.30;;;;;;6180046;28;20233;-66
2023/04/25 08:58:17;;;;;;;3.70;2.00;;;22.80;28.20;;;;;;6179527;28;20845;-66
2023/04/25 09:01:21;;;;;;;1.83;1.73;;;22.20;29.20;;;;;;6180495;28;20226;-66
2023/04/25 09:04:25;;;;;;;2.47;1.85;;;21.90;30.00;;;;;;6202899;28;20449;-64
2023/04/25 09:07:28;;;;;;;1.47;1.37;;;21.50;30.70;;;;;;6203955;28;20613;-66
2023/04/25 09:10:31;;;;;;;2.77;1.40;;;21.00;31.40;;;;;;6203525;28;20248;-65
2023/04/25 09:13:35;;;;;;;1.60;1.30;;;21.50;30.70;;;;;;6203911;28;20549;-66
2023/04/25 09:17:02;;;;;;;2.53;1.47;;;21.50;30.60;;;;;;6203296;28;20242;-65
2023/04/25 09:20:11;;;;;;;1.20;1.10;;;21.40;30.20;;;;;;6203390;28;20233;-66
2023/04/25 09:23:15;;;;;;;1.63;1.30;;;21.20;31.10;;;;;;6203460;28;20244;-66
2023/04/25 09:26:20;;;;;;;2.03;1.80;;;20.90;31.10;;;;;;6203579;28;20225;-67
2023/04/25 09:29:30;;;;;;;3.27;2.00;;;20.60;31.90;;;;;;6202088;28;20244;-63
2023/04/25 09:32:37;;;;;;;1.57;1.47;;;20.40;31.90;;;;;;6202795;28;20712;-63
2023/04/25 09:35:41;;;;;;;2.00;1.43;;;19.80;31.90;;;;;;6194952;28;20677;-63
2023/04/25 09:38:46;;;;;;;1.33;1.23;;;19.70;33.20;;;;;;6199411;28;20245;-63
2023/04/25 09:41:54;;;;;;;1.40;1.30;;;19.50;33.00;;;;;;6191006;28;20673;-63
2023/04/25 09:44:59;;;;;;;1.40;1.30;;;19.50;34.20;;;;;;6191092;28;20230;-63
2023/04/25 09:48:06;;;;;;;2.10;1.67;;;19.50;34.00;;;;;;6190483;28;20226;-63
2023/04/25 09:51:13;;;;;;;2.63;1.60;;;19.20;34.20;;;;;;6202152;28;20232;-63
2023/04/25 09:54:16;;;;;;;1.20;1.10;;;19.60;34.10;;;;;;6187013;28;20649;-66
2023/04/25 09:57:20;;;;;;;1.53;1.43;;;20.00;33.90;;;;;;6178289;28;20562;-66
2023/04/25 10:00:24;;;;;;;1.60;1.40;;;20.50;32.60;;;;;;6179198;28;20249;-68
2023/04/25 10:03:30;;;;;;;2.30;1.20;;;20.70;32.20;;;;;;6179236;28;20507;-65
2023/04/25 10:06:36;;;;;;;2.23;1.60;;;21.10;32.50;;;;;;6179157;28;20230;-63
2023/04/25 10:09:40;;;;;;;2.37;1.53;;;21.30;31.60;;;;;;6180360;28;20233;-61
2023/04/25 10:12:45;;;;;;;1.50;1.33;;;21.70;32.00;;;;;;6202796;28;20261;-61
2023/04/25 10:15:48;;;;;;;12.77;8.23;;;21.90;31.10;;;;;;6202758;28;20229;-64
2023/04/25 10:18:53;;;;;;;2.00;1.90;;;22.20;30.90;;;;;;6203505;28;20307;-61
2023/04/25 10:22:04;;;;;;;1.73;1.63;;;21.90;31.50;;;;;;6194167;28;20241;-64
2023/04/25 10:25:09;;;;;;;2.60;1.17;;;21.70;30.50;;;;;;6203005;28;20249;-63
2023/04/25 10:28:12;;;;;;;3.53;1.70;;;21.60;30.80;;;;;;6185538;28;20241;-63
2023/04/25 10:31:17;;;;;;;2.53;1.90;;;21.70;31.20;;;;;;6196153;28;20244;-63
2023/04/25 10:34:26;;;;;;;2.70;2.10;;;21.10;31.80;;;;;;6188152;28;20234;-63
2023/04/25 10:37:31;;;;;;;1.93;1.60;;;21.10;32.00;;;;;;6188521;28;20229;-63
2023/04/25 10:40:34;;;;;;;2.30;1.17;;;21.30;31.90;;;;;;6189936;28;20234;-63
2023/04/25 10:43:39;;;;;;;1.53;1.43;;;21.60;31.10;;;;;;6190610;28;20221;-63
2023/04/25 10:46:42;;;;;;;2.20;1.80;;;21.60;31.20;;;;;;6189642;28;20269;-63
2023/04/25 10:49:52;;;;;;;2.43;1.80;;;21.50;31.20;;;;;;6189818;28;20840;-62
2023/04/25 10:52:55;;;;;;;2.00;1.73;;;21.50;31.10;;;;;;6182897;28;20674;-62
2023/04/25 10:55:58;;;;;;;1.33;1.23;;;21.20;31.40;;;;;;6177460;28;20237;-62
2023/04/25 10:59:07;;;;;;;2.17;1.40;;;20.90;31.30;;;;;;6176990;28;20261;-63
2023/04/25 11:02:13;;;;;;;4.80;1.50;;;21.10;31.70;;;;;;6177586;28;20241;-62
2023/04/25 11:05:23;;;;;;;1.50;1.40;;;21.20;31.40;;;;;;6177245;28;20667;-62
2023/04/25 11:08:43;;;;;;;2.03;1.10;;;21.20;30.50;;;;;;6177497;28;20245;-62
2023/04/25 11:11:55;;;;;;;3.40;1.33;;;21.30;31.20;;;;;;6195507;28;20233;-62
2023/04/25 11:15:03;;;;;;;2.27;1.40;;;21.40;32.20;;;;;;6201113;28;20237;-63
2023/04/25 11:18:06;;;;;;;1.97;1.73;;;21.50;30.80;;;;;;6200639;28;20236;-64
2023/04/25 11:21:14;;;;;;;3.13;1.30;;;21.40;29.40;;;;;;6200769;28;20533;-65
2023/04/25 11:24:18;;;;;;;2.70;2.10;;;21.40;28.90;;;;;;6194940;28;20542;-65
2023/04/25 11:27:24;;;;;;;1.27;0.90;;;21.10;27.90;;;;;;6201272;28;20225;-62
2023/04/25 11:30:28;;;;;;;2.00;1.00;;;20.80;28.60;;;;;;6206137;28;20232;-62
2023/04/25 11:33:31;;;;;;;2.43;1.80;;;20.70;30.00;;;;;;6226028;28;20555;-63
2023/04/25 11:36:38;;;;;;;2.13;1.30;;;20.50;30.00;;;;;;6203505;28;20708;-65
2023/04/25 11:39:47;;;;;;;2.20;1.20;;;20.10;31.30;;;;;;6200949;28;20268;-63
2023/04/25 11:42:50;;;;;;;1.63;1.07;;;19.80;31.90;;;;;;6201289;28;20271;-64
2023/04/25 11:45:56;;;;;;;1.10;0.83;;;19.70;32.40;;;;;;6201031;28;20241;-63
2023/04/25 11:49:00;;;;;;;1.03;0.93;;;19.50;30.70;;;;;;6197408;28;20237;-65
2023/04/25 11:52:08;;;;;;;1.87;1.13;;;19.30;32.10;;;;;;6198931;28;20237;-64
2023/04/25 11:55:14;;;;;;;1.17;1.00;;;19.20;31.80;;;;;;6199404;28;20716;-64
2023/04/25 11:58:17;;;;;;;1.47;1.20;;;19.00;33.50;;;;;;6198449;28;20608;-64
2023/04/25 12:01:27;;;;;;;2.07;1.00;;;18.70;33.60;;;;;;6199284;28;20624;-63
2023/04/25 12:04:35;;;;;;;4.10;1.23;;;18.50;34.60;;;;;;6198797;28;20301;-64
2023/04/25 12:07:42;;;;;;;1.50;0.90;;;18.30;34.50;;;;;;6199547;28;20488;-64
2023/04/25 12:10:46;;;;;;;2.40;0.90;;;18.20;34.50;;;;;;6203626;28;20245;-62
2023/04/25 12:13:53;;;;;;;1.60;1.40;;;17.90;34.30;;;;;;6204019;28;20244;-61
2023/04/25 12:16:58;;;;;;;1.83;1.20;;;17.60;35.20;;;;;;6200475;28;20241;-63
2023/04/25 12:20:06;;;;;;;2.23;1.00;;;17.40;35.90;;;;;;6205024;28;20491;-62
2023/04/25 12:23:12;;;;;;;5.30;1.00;;;17.30;36.40;;;;;;6205989;28;20476;-63
2023/04/25 12:26:17;;;;;;;1.47;1.00;;;17.60;37.40;;;;;;6204901;28;20972;-63
2023/04/25 12:29:21;;;;;;;1.20;0.90;;;18.00;35.20;;;;;;6205338;28;21015;-64
2023/04/25 12:32:25;;;;;;;1.57;1.30;;;18.50;34.80;;;;;;6226424;28;20487;-64
2023/04/25 12:35:28;;;;;;;1.43;1.20;;;19.10;34.70;;;;;;6215373;28;20218;-63
2023/04/25 12:38:37;;;;;;;2.10;1.07;;;19.60;33.80;;;;;;6181241;28;20575;-63
2023/04/25 12:41:40;;;;;;;2.33;1.33;;;19.90;31.80;;;;;;6180974;28;20241;-62
2023/04/25 12:44:43;;;;;;;1.10;1.00;;;20.10;33.90;;;;;;6181247;28;20670;-64
2023/04/25 12:47:46;;;;;;;2.33;1.20;;;20.10;34.30;;;;;;6180641;28;20238;-64
2023/04/25 12:50:51;;;;;;;1.63;1.30;;;20.10;34.30;;;;;;6180572;28;20300;-63
2023/04/25 12:53:56;;;;;;;1.53;1.20;;;20.30;34.00;;;;;;6180712;28;20381;-65
2023/04/25 12:56:59;;;;;;;1.63;1.53;;;20.40;33.30;;;;;;6180327;28;20695;-64
2023/04/25 13:00:04;;;;;;;1.23;1.00;;;20.50;31.70;;;;;;6180804;28;20708;-64
2023/04/25 13:03:07;;;;;;;2.17;1.13;;;20.20;31.90;;;;;;6182585;28;20230;-63
2023/04/25 13:06:10;;;;;;;1.53;1.03;;;20.20;31.80;;;;;;6180450;28;20241;-63
2023/04/25 13:09:15;;;;;;;5.10;1.10;;;20.30;32.30;;;;;;6179690;28;20226;-64
2023/04/25 13:12:18;;;;;;;2.20;1.17;;;20.30;31.50;;;;;;6199782;28;20210;-64
2023/04/25 13:15:21;;;;;;;1.53;1.37;;;20.40;31.60;;;;;;6204109;28;20217;-64
2023/04/25 13:18:26;;;;;;;2.33;1.27;;;20.50;32.50;;;;;;6203731;28;20229;-64
2023/04/25 13:21:31;;;;;;;1.93;1.10;;;20.30;36.30;;;;;;6203221;28;20229;-62
2023/04/25 13:24:36;;;;;;;2.00;1.83;;;20.00;37.70;;;;;;6192771;28;20293;-61
2023/04/25 13:27:40;;;;;;;1.10;1.00;;;19.80;37.30;;;;;;6182529;28;20234;-64
2023/04/25 13:30:43;;;;;;;1.37;1.10;;;19.80;37.40;;;;;;6199240;28;20833;-64
2023/04/25 13:33:47;;;;;;;1.88;1.10;;;19.90;37.70;;;;;;6222997;28;20537;-61
2023/04/25 13:36:50;;;;;;;1.10;1.00;;;19.80;36.50;;;;;;6206479;28;20276;-65
2023/04/25 13:39:57;;;;;;;1.00;0.90;;;19.60;36.90;;;;;;6203432;28;20234;-64
2023/04/25 13:43:00;;;;;;;1.33;1.20;;;19.80;37.20;;;;;;6203342;28;20233;-64
2023/04/25 13:46:03;;;;;;;1.10;1.00;;;19.30;38.40;;;;;;6202966;28;20226;-63
2023/04/25 13:49:07;;;;;;;3.33;1.37;;;18.90;39.60;;;;;;6202928;28;20233;-62
2023/04/25 13:52:15;;;;;;;3.10;1.27;;;18.80;40.20;;;;;;6201331;28;20549;-62
2023/04/25 13:55:20;;;;;;;1.07;0.87;;;18.80;39.70;;;;;;6202983;28;20307;-62
2023/04/25 13:58:23;;;;;;;1.60;1.50;;;18.90;38.20;;;;;;6202617;28;20233;-62
2023/04/25 14:01:27;;;;;;;2.53;1.43;;;18.80;38.70;;;;;;6203198;28;20252;-62
2023/04/25 14:04:31;;;;;;;3.40;1.17;;;18.50;40.50;;;;;;6203415;28;20233;-62
2023/04/25 14:07:34;;;;;;;2.00;1.43;;;18.80;40.20;;;;;;6202934;28;20243;-63
2023/04/25 14:10:39;;;;;;;1.87;1.23;;;19.00;39.20;;;;;;6202857;28;20229;-63
2023/04/25 14:13:42;;;;;;;1.00;1.00;;;18.70;37.90;;;;;;6202837;28;20236;-65
2023/04/25 14:16:45;;;;;;;1.40;1.30;;;18.80;37.70;;;;;;6202774;28;20576;-63
2023/04/25 14:19:48;;;;;;;1.43;1.13;;;19.00;38.40;;;;;;6202337;28;20242;-64
2023/04/25 14:22:54;;;;;;;3.10;1.00;;;18.80;39.40;;;;;;6202229;28;20233;-64
2023/04/25 14:25:59;;;;;;;2.00;1.53;;;18.60;39.00;;;;;;6202340;28;20232;-64
2023/04/25 14:29:02;;;;;;;1.50;1.20;;;18.10;39.20;;;;;;6201875;28;20256;-62
2023/04/25 14:32:06;;;;;;;1.20;1.10;;;18.10;40.00;;;;;;6202169;28;20225;-61
2023/04/25 14:35:10;;;;;;;1.53;1.43;;;18.20;41.30;;;;;;6201844;28;20225;-61
2023/04/25 14:38:14;;;;;;;2.80;1.30;;;18.30;41.20;;;;;;6202055;28;20229;-61
2023/04/25 14:41:18;;;;;;;2.10;1.00;;;18.10;41.30;;;;;;6201919;28;20469;-61
2023/04/25 14:44:21;;;;;;;1.53;1.27;;;18.20;41.30;;;;;;6202600;28;20241;-61
2023/04/25 14:47:25;;;;;;;1.20;1.10;;;18.30;40.90;;;;;;6201640;28;20233;-61
2023/04/25 14:50:31;;;;;;;1.60;1.27;;;18.40;40.30;;;;;;6201897;28;20658;-61
2023/04/25 14:53:34;;;;;;;1.30;1.10;;;18.50;40.20;;;;;;6201871;28;20692;-61
2023/04/25 14:56:38;;;;;;;1.50;1.30;;;18.50;40.30;;;;;;6201562;28;20577;-61
2023/04/25 14:59:42;;;;;;;1.23;0.87;;;18.50;40.10;;;;;;6201298;28;20237;-61
2023/04/25 15:02:45;;;;;;;2.60;1.10;;;18.30;39.40;;;;;;6201512;28;20694;-61
2023/04/25 15:05:48;;;;;;;0.93;0.80;;;18.20;39.40;;;;;;6201608;28;20688;-60
2023/04/25 15:08:51;;;;;;;3.00;1.80;;;18.10;39.80;;;;;;6201583;28;20483;-61
2023/04/25 15:11:56;;;;;;;1.80;0.90;;;17.90;39.70;;;;;;6201393;28;20484;-60
2023/04/25 15:14:59;;;;;;;2.10;1.90;;;17.90;40.50;;;;;;6201579;28;20473;-61
2023/04/25 15:18:03;;;;;;;1.87;1.37;;;17.90;40.90;;;;;;6201452;28;20468;-61
2023/04/25 15:21:07;;;;;;;2.13;1.03;;;18.00;41.00;;;;;;6201162;28;20538;-60
2023/04/25 15:24:10;;;;;;;2.07;1.00;;;18.10;39.30;;;;;;6201344;28;20762;-61
2023/04/25 15:27:15;;;;;;;1.53;1.10;;;18.20;38.80;;;;;;6201038;28;20226;-61
2023/04/25 15:30:19;;;;;;;1.60;1.13;;;18.30;38.30;;;;;;6202015;28;20249;-61
2023/04/25 15:33:22;;;;;;;1.70;0.60;;;18.50;36.40;;;;;;6200923;28;20212;-61
2023/04/25 15:36:25;;;;;;;1.10;1.00;;;18.60;34.20;;;;;;6201471;28;20201;-62
2023/04/25 15:39:29;;;;;;;3.73;1.07;;;18.70;32.80;;;;;;6189023;28;20244;-62
2023/04/25 15:42:33;;;;;;;1.00;0.70;;;18.80;33.20;;;;;;6190008;28;20641;-65
2023/04/25 15:45:36;;;;;;;1.00;0.80;;;18.70;32.90;;;;;;6200332;28;20229;-65
2023/04/25 15:48:40;;;;;;;0.70;0.57;;;18.60;33.10;;;;;;6200709;28;20237;-65
2023/04/25 15:51:43;;;;;;;0.93;0.70;;;18.60;32.80;;;;;;6201477;28;20225;-65
2023/04/25 15:54:46;;;;;;;1.90;1.33;;;18.40;33.00;;;;;;6201357;28;20483;-64
2023/04/25 15:57:51;;;;;;;1.00;0.80;;;18.30;33.10;;;;;;6201291;28;20495;-64
2023/04/25 16:00:55;;;;;;;1.03;0.83;;;18.30;32.90;;;;;;6201232;28;20483;-63